sensor_id;sensor_type;location;lat;lon;timestamp;pressure;altitude;pressure_sealevel;temperature;humidity
49843;BME280;55559;48.898;9.184;2022-11-20T00:00:40;97971.69;;;3.95;100.00
49843;BME280;55559;48.898;9.184;2022-11-20T00:03:08;97964.50;;;3.97;100.00
49843;BME280;55559;48.898;9.184;2022-11-20T00:05:36;97963.13;;;4.04;100.00
49843;BME280;55559;48.898;9.184;2022-11-20T00:08:04;97966.78;;;4.15;100.00
49843;BME280;55559;48.898;9.184;2022-11-20T00:10:32;97963.31;;;4.14;100.00
49843;BME280;55559;48.898;9.184;2022-11-20T00:13:00;97963.72;;;4.34;100.00
49843;BME280;55559;48.898;9.184;2022-11-20T00:15:27;97972.22;;;4.37;100.00
49843;BME280;55559;48.898;9.184;2022-11-20T00:17:55;97978.28;;;4.51;100.00
49843;BME280;55559;48.898;9.184;2022-11-20T00:20:22;97971.72;;;4.56;100.00
49843;BME280;55559;48.898;9.184;2022-11-20T00:22:51;97972.63;;;4.68;100.00
49843;BME280;55559;48.898;9.184;2022-11-20T00:25:19;97972.03;;;4.64;100.00
49843;BME280;55559;48.898;9.184;2022-11-20T00:27:46;97977.09;;;4.55;100.00
49843;BME280;55559;48.898;9.184;2022-11-20T00:30:20;97967.47;;;4.42;100.00
49843;BME280;55559;48.898;9.184;2022-11-20T00:32:47;97961.69;;;4.37;100.00
49843;BME280;55559;48.898;9.184;2022-11-20T00:35:15;97967.81;;;4.25;100.00
49843;BME280;55559;48.898;9.184;2022-11-20T00:37:42;97973.06;;;4.25;100.00
49843;BME280;55559;48.898;9.184;2022-11-20T00:40:12;97959.31;;;4.21;100.00
49843;BME280;55559;48.898;9.184;2022-11-20T00:42:39;97973.31;;;4.22;100.00
49843;BME280;55559;48.898;9.184;2022-11-20T00:45:07;97961.59;;;4.26;100.00
49843;BME280;55559;48.898;9.184;2022-11-20T00:47:35;97964.03;;;4.29;100.00
49843;BME280;55559;48.898;9.184;2022-11-20T00:50:03;97968.34;;;4.30;100.00
49843;BME280;55559;48.898;9.184;2022-11-20T00:52:30;97963.91;;;4.31;100.00
49843;BME280;55559;48.898;9.184;2022-11-20T00:54:58;97965.38;;;4.35;100.00
49843;BME280;55559;48.898;9.184;2022-11-20T00:57:26;97968.00;;;4.35;100.00
49843;BME280;55559;48.898;9.184;2022-11-20T00:59:54;97959.16;;;4.36;100.00
49843;BME280;55559;48.898;9.184;2022-11-20T01:02:21;97970.31;;;4.39;100.00
49843;BME280;55559;48.898;9.184;2022-11-20T01:04:49;97972.31;;;4.36;100.00
49843;BME280;55559;48.898;9.184;2022-11-20T01:07:16;97967.16;;;4.34;100.00
49843;BME280;55559;48.898;9.184;2022-11-20T01:09:44;97972.44;;;4.34;100.00
49843;BME280;55559;48.898;9.184;2022-11-20T01:12:11;97973.28;;;4.35;100.00
49843;BME280;55559;48.898;9.184;2022-11-20T01:14:40;97981.63;;;4.28;100.00
49843;BME280;55559;48.898;9.184;2022-11-20T01:17:07;97974.78;;;4.26;100.00
49843;BME280;55559;48.898;9.184;2022-11-20T01:19:35;97980.44;;;4.33;100.00
49843;BME280;55559;48.898;9.184;2022-11-20T01:22:02;97981.63;;;4.28;100.00
49843;BME280;55559;48.898;9.184;2022-11-20T01:24:30;97976.56;;;4.25;100.00
49843;BME280;55559;48.898;9.184;2022-11-20T01:26:57;97983.19;;;4.31;100.00
49843;BME280;55559;48.898;9.184;2022-11-20T01:29:27;97983.19;;;4.31;100.00
49843;BME280;55559;48.898;9.184;2022-11-20T01:31:55;97988.84;;;4.38;100.00
49843;BME280;55559;48.898;9.184;2022-11-20T01:34:23;97983.88;;;4.46;100.00
49843;BME280;55559;48.898;9.184;2022-11-20T01:36:51;97977.53;;;4.48;100.00
49843;BME280;55559;48.898;9.184;2022-11-20T01:39:20;97975.66;;;4.51;100.00
49843;BME280;55559;48.898;9.184;2022-11-20T01:41:48;97978.41;;;4.49;100.00
49843;BME280;55559;48.898;9.184;2022-11-20T01:44:53;97982.06;;;4.46;100.00
49843;BME280;55559;48.898;9.184;2022-11-20T01:47:27;97973.56;;;4.43;100.00
49843;BME280;55559;48.898;9.184;2022-11-20T01:49:59;97977.53;;;4.48;100.00
49843;BME280;55559;48.898;9.184;2022-11-20T01:52:34;97973.66;;;4.41;100.00
49843;BME280;55559;48.898;9.184;2022-11-20T01:55:05;97976.09;;;4.44;100.00
49843;BME280;55559;48.898;9.184;2022-11-20T01:57:35;97974.56;;;4.53;100.00
49843;BME280;55559;48.898;9.184;2022-11-20T02:00:06;97971.63;;;4.58;100.00
49843;BME280;55559;48.898;9.184;2022-11-20T02:02:45;97978.13;;;4.65;100.00
49843;BME280;55559;48.898;9.184;2022-11-20T02:05:20;97979.38;;;4.72;100.00
49843;BME280;55559;48.898;9.184;2022-11-20T02:07:50;97974.63;;;4.77;100.00
49843;BME280;55559;48.898;9.184;2022-11-20T02:10:18;97974.03;;;4.85;100.00
49843;BME280;55559;48.898;9.184;2022-11-20T02:12:45;97981.00;;;4.86;100.00
49843;BME280;55559;48.898;9.184;2022-11-20T02:15:32;97971.06;;;4.90;100.00
49843;BME280;55559;48.898;9.184;2022-11-20T02:18:01;97970.84;;;4.93;100.00
49843;BME280;55559;48.898;9.184;2022-11-20T02:20:28;97960.31;;;4.93;100.00
49843;BME280;55559;48.898;9.184;2022-11-20T02:22:59;97963.56;;;4.96;100.00
49843;BME280;55559;48.898;9.184;2022-11-20T02:25:39;97961.41;;;5.01;100.00
49843;BME280;55559;48.898;9.184;2022-11-20T02:28:09;97953.50;;;5.01;100.00
49843;BME280;55559;48.898;9.184;2022-11-20T02:30:37;97958.34;;;5.08;100.00
49843;BME280;55559;48.898;9.184;2022-11-20T02:33:04;97957.97;;;5.12;100.00
49843;BME280;55559;48.898;9.184;2022-11-20T02:35:41;97957.25;;;5.10;100.00
49843;BME280;55559;48.898;9.184;2022-11-20T02:38:10;97958.94;;;5.11;100.00
49843;BME280;55559;48.898;9.184;2022-11-20T02:40:39;97953.94;;;5.19;100.00
49843;BME280;55559;48.898;9.184;2022-11-20T02:43:07;97960.16;;;5.18;100.00
49843;BME280;55559;48.898;9.184;2022-11-20T02:45:35;97958.94;;;5.22;100.00
49843;BME280;55559;48.898;9.184;2022-11-20T02:48:03;97961.25;;;5.27;100.00
49843;BME280;55559;48.898;9.184;2022-11-20T02:50:30;97949.53;;;5.31;100.00
49843;BME280;55559;48.898;9.184;2022-11-20T02:52:58;97936.22;;;5.33;100.00
49843;BME280;55559;48.898;9.184;2022-11-20T02:55:25;97948.09;;;5.38;100.00
49843;BME280;55559;48.898;9.184;2022-11-20T02:57:54;97945.59;;;5.37;100.00
49843;BME280;55559;48.898;9.184;2022-11-20T03:00:22;97947.38;;;5.36;100.00
49843;BME280;55559;48.898;9.184;2022-11-20T03:02:49;97941.25;;;5.36;100.00
49843;BME280;55559;48.898;9.184;2022-11-20T03:05:17;97942.94;;;5.37;100.00
49843;BME280;55559;48.898;9.184;2022-11-20T03:07:44;97948.22;;;5.37;100.00
49843;BME280;55559;48.898;9.184;2022-11-20T03:10:12;97946.31;;;5.39;100.00
49843;BME280;55559;48.898;9.184;2022-11-20T03:12:39;97933.84;;;5.41;100.00
49843;BME280;55559;48.898;9.184;2022-11-20T03:15:09;97937.59;;;5.50;100.00
49843;BME280;55559;48.898;9.184;2022-11-20T03:17:37;97936.50;;;5.52;100.00
49843;BME280;55559;48.898;9.184;2022-11-20T03:20:05;97933.25;;;5.49;100.00
49843;BME280;55559;48.898;9.184;2022-11-20T03:22:33;97925.56;;;5.46;100.00
49843;BME280;55559;48.898;9.184;2022-11-20T03:25:00;97924.16;;;5.42;100.00
49843;BME280;55559;48.898;9.184;2022-11-20T03:27:32;97930.38;;;5.40;100.00
49843;BME280;55559;48.898;9.184;2022-11-20T03:30:00;97918.75;;;5.43;100.00
49843;BME280;55559;48.898;9.184;2022-11-20T03:32:29;97917.06;;;5.42;100.00
49843;BME280;55559;48.898;9.184;2022-11-20T03:34:56;97925.22;;;5.39;100.00
49843;BME280;55559;48.898;9.184;2022-11-20T03:37:24;97920.91;;;5.38;100.00
49843;BME280;55559;48.898;9.184;2022-11-20T03:39:51;97919.22;;;5.37;100.00
49843;BME280;55559;48.898;9.184;2022-11-20T03:42:18;97926.31;;;5.36;100.00
49843;BME280;55559;48.898;9.184;2022-11-20T03:45:04;97921.84;;;5.37;100.00
49843;BME280;55559;48.898;9.184;2022-11-20T03:47:33;97917.06;;;5.42;100.00
49843;BME280;55559;48.898;9.184;2022-11-20T03:50:01;97915.50;;;5.51;100.00
49843;BME280;55559;48.898;9.184;2022-11-20T03:52:28;97922.81;;;5.47;100.00
49843;BME280;55559;48.898;9.184;2022-11-20T03:54:56;97919.47;;;5.45;100.00
49843;BME280;55559;48.898;9.184;2022-11-20T03:57:23;97924.97;;;5.42;100.00
49843;BME280;55559;48.898;9.184;2022-11-20T03:59:51;97920.75;;;5.39;100.00
49843;BME280;55559;48.898;9.184;2022-11-20T04:02:18;97923.28;;;5.41;100.00
49843;BME280;55559;48.898;9.184;2022-11-20T04:04:47;97908.06;;;5.45;100.00
49843;BME280;55559;48.898;9.184;2022-11-20T04:07:14;97914.19;;;5.45;100.00
49843;BME280;55559;48.898;9.184;2022-11-20T04:09:42;97904.59;;;5.44;100.00
49843;BME280;55559;48.898;9.184;2022-11-20T04:12:09;97912.28;;;5.47;100.00
49843;BME280;55559;48.898;9.184;2022-11-20T04:14:37;97912.28;;;5.47;100.00
49843;BME280;55559;48.898;9.184;2022-11-20T04:17:04;97913.00;;;5.49;100.00
49843;BME280;55559;48.898;9.184;2022-11-20T04:19:31;97906.41;;;5.44;100.00
49843;BME280;55559;48.898;9.184;2022-11-20T04:22:00;97914.19;;;5.45;100.00
49843;BME280;55559;48.898;9.184;2022-11-20T04:24:28;97906.75;;;5.39;100.00
49843;BME280;55559;48.898;9.184;2022-11-20T04:26:55;97916.69;;;5.35;100.00
49843;BME280;55559;48.898;9.184;2022-11-20T04:29:23;97908.19;;;5.32;100.00
49843;BME280;55559;48.898;9.184;2022-11-20T04:31:50;97903.25;;;5.27;100.00
49843;BME280;55559;48.898;9.184;2022-11-20T04:34:18;97906.13;;;5.24;100.00
49843;BME280;55559;48.898;9.184;2022-11-20T04:36:45;97911.28;;;5.26;100.00
49843;BME280;55559;48.898;9.184;2022-11-20T04:39:15;97914.16;;;5.22;100.00
49843;BME280;55559;48.898;9.184;2022-11-20T04:41:42;97911.41;;;5.24;100.00
49843;BME280;55559;48.898;9.184;2022-11-20T04:44:10;97912.25;;;5.25;100.00
49843;BME280;55559;48.898;9.184;2022-11-20T04:46:40;97912.13;;;5.26;100.00
49843;BME280;55559;48.898;9.184;2022-11-20T04:49:08;97903.97;;;5.29;100.00
49843;BME280;55559;48.898;9.184;2022-11-20T04:51:35;97911.16;;;5.27;100.00
49843;BME280;55559;48.898;9.184;2022-11-20T04:54:03;97913.56;;;5.30;100.00
49843;BME280;55559;48.898;9.184;2022-11-20T04:56:32;97905.66;;;5.30;100.00
49843;BME280;55559;48.898;9.184;2022-11-20T04:59:00;97899.56;;;5.30;100.00
49843;BME280;55559;48.898;9.184;2022-11-20T05:01:28;97903.84;;;5.31;100.00
49843;BME280;55559;48.898;9.184;2022-11-20T05:03:56;97905.78;;;5.29;100.00
49843;BME280;55559;48.898;9.184;2022-11-20T05:06:23;97893.53;;;5.28;100.00
49843;BME280;55559;48.898;9.184;2022-11-20T05:08:51;97907.69;;;5.27;100.00
49843;BME280;55559;48.898;9.184;2022-11-20T05:11:19;97901.72;;;5.36;100.00
49843;BME280;55559;48.898;9.184;2022-11-20T05:13:49;97903.97;;;5.29;100.00
49843;BME280;55559;48.898;9.184;2022-11-20T05:16:18;97904.84;;;5.30;100.00
49843;BME280;55559;48.898;9.184;2022-11-20T05:18:46;97905.66;;;5.30;100.00
49843;BME280;55559;48.898;9.184;2022-11-20T05:21:14;97907.84;;;5.36;100.00
49843;BME280;55559;48.898;9.184;2022-11-20T05:23:42;97906.63;;;5.40;100.00
49843;BME280;55559;48.898;9.184;2022-11-20T05:26:13;97906.03;;;5.37;100.00
49843;BME280;55559;48.898;9.184;2022-11-20T05:28:41;97904.22;;;5.37;100.00
49843;BME280;55559;48.898;9.184;2022-11-20T05:31:11;97907.22;;;5.33;100.00
49843;BME280;55559;48.898;9.184;2022-11-20T05:33:40;97906.03;;;5.37;100.00
49843;BME280;55559;48.898;9.184;2022-11-20T05:36:09;97902.44;;;5.38;100.00
49843;BME280;55559;48.898;9.184;2022-11-20T05:38:36;97904.81;;;5.41;100.00
49843;BME280;55559;48.898;9.184;2022-11-20T05:41:04;97900.03;;;5.35;100.00
49843;BME280;55559;48.898;9.184;2022-11-20T05:43:33;97900.66;;;5.38;100.00
49843;BME280;55559;48.898;9.184;2022-11-20T05:46:01;97900.53;;;5.40;100.00
49843;BME280;55559;48.898;9.184;2022-11-20T05:48:32;97901.25;;;5.42;100.00
49843;BME280;55559;48.898;9.184;2022-11-20T05:51:00;97904.72;;;5.43;100.00
49843;BME280;55559;48.898;9.184;2022-11-20T05:53:28;97899.66;;;5.39;100.00
49843;BME280;55559;48.898;9.184;2022-11-20T05:55:59;97901.97;;;5.44;100.00
49843;BME280;55559;48.898;9.184;2022-11-20T05:58:27;97893.94;;;5.46;100.00
49843;BME280;55559;48.898;9.184;2022-11-20T06:00:54;97899.81;;;5.49;100.00
49843;BME280;55559;48.898;9.184;2022-11-20T06:03:22;97889.84;;;5.53;100.00
49843;BME280;55559;48.898;9.184;2022-11-20T06:05:50;97894.31;;;5.52;100.00
49843;BME280;55559;48.898;9.184;2022-11-20T06:08:18;97885.69;;;5.50;100.00
49843;BME280;55559;48.898;9.184;2022-11-20T06:10:45;97883.41;;;5.57;100.00
49843;BME280;55559;48.898;9.184;2022-11-20T06:13:13;97885.94;;;5.58;100.00
49843;BME280;55559;48.898;9.184;2022-11-20T06:15:40;97889.50;;;5.57;100.00
49843;BME280;55559;48.898;9.184;2022-11-20T06:18:07;97890.72;;;5.53;100.00
49843;BME280;55559;48.898;9.184;2022-11-20T06:20:35;97881.47;;;5.59;100.00
49843;BME280;55559;48.898;9.184;2022-11-20T06:23:04;97889.50;;;5.57;100.00
49843;BME280;55559;48.898;9.184;2022-11-20T06:25:31;97884.13;;;5.59;100.00
49843;BME280;55559;48.898;9.184;2022-11-20T06:27:59;97890.47;;;5.56;100.00
49843;BME280;55559;48.898;9.184;2022-11-20T06:30:26;97884.22;;;5.57;100.00
49843;BME280;55559;48.898;9.184;2022-11-20T06:32:54;97890.47;;;5.56;100.00
49843;BME280;55559;48.898;9.184;2022-11-20T06:35:21;97887.69;;;5.58;100.00
49843;BME280;55559;48.898;9.184;2022-11-20T06:37:48;97888.56;;;5.58;100.00
49843;BME280;55559;48.898;9.184;2022-11-20T06:40:17;97888.34;;;5.62;100.00
49843;BME280;55559;48.898;9.184;2022-11-20T06:42:45;97885.31;;;5.66;100.00
49843;BME280;55559;48.898;9.184;2022-11-20T06:45:12;97881.72;;;5.67;100.00
49843;BME280;55559;48.898;9.184;2022-11-20T06:47:40;97886.28;;;5.65;100.00
49843;BME280;55559;48.898;9.184;2022-11-20T06:50:08;97885.44;;;5.65;100.00
49843;BME280;55559;48.898;9.184;2022-11-20T06:52:35;97895.38;;;5.61;100.00
49843;BME280;55559;48.898;9.184;2022-11-20T06:55:03;97899.81;;;5.61;100.00
49843;BME280;55559;48.898;9.184;2022-11-20T06:57:33;97890.47;;;5.68;100.00
49843;BME280;55559;48.898;9.184;2022-11-20T07:00:00;97889.53;;;5.69;100.00
49843;BME280;55559;48.898;9.184;2022-11-20T07:02:28;97883.16;;;5.71;100.00
49843;BME280;55559;48.898;9.184;2022-11-20T07:04:55;97890.72;;;5.76;100.00
49843;BME280;55559;48.898;9.184;2022-11-20T07:07:23;97894.66;;;5.82;100.00
49843;BME280;55559;48.898;9.184;2022-11-20T07:09:50;97895.75;;;5.79;100.00
49843;BME280;55559;48.898;9.184;2022-11-20T07:12:18;97901.25;;;5.76;100.00
49843;BME280;55559;48.898;9.184;2022-11-20T07:14:46;97896.59;;;5.80;100.00
49843;BME280;55559;48.898;9.184;2022-11-20T07:17:14;97900.78;;;5.82;100.00
49843;BME280;55559;48.898;9.184;2022-11-20T07:19:41;97910.97;;;5.87;100.00
49843;BME280;55559;48.898;9.184;2022-11-20T07:22:09;97906.31;;;5.90;100.00
49843;BME280;55559;48.898;9.184;2022-11-20T07:24:36;97910.75;;;6.01;100.00
49843;BME280;55559;48.898;9.184;2022-11-20T07:27:04;97911.59;;;6.02;100.00
49843;BME280;55559;48.898;9.184;2022-11-20T07:29:31;97912.81;;;6.09;100.00
49843;BME280;55559;48.898;9.184;2022-11-20T07:32:00;97915.56;;;6.07;100.00
49843;BME280;55559;48.898;9.184;2022-11-20T07:34:28;97921.44;;;6.11;100.00
49843;BME280;55559;48.898;9.184;2022-11-20T07:36:55;97922.50;;;6.08;100.00
49843;BME280;55559;48.898;9.184;2022-11-20T07:39:23;97916.50;;;6.06;100.00
49843;BME280;55559;48.898;9.184;2022-11-20T07:41:50;97921.66;;;6.08;100.00
49843;BME280;55559;48.898;9.184;2022-11-20T07:44:18;97920.34;;;6.13;100.00
49843;BME280;55559;48.898;9.184;2022-11-20T07:46:45;97921.78;;;6.18;100.00
49843;BME280;55559;48.898;9.184;2022-11-20T07:49:14;97923.56;;;6.17;100.00
49843;BME280;55559;48.898;9.184;2022-11-20T07:51:42;97925.25;;;6.07;100.00
49843;BME280;55559;48.898;9.184;2022-11-20T07:54:09;97924.78;;;6.13;100.00
49843;BME280;55559;48.898;9.184;2022-11-20T07:56:36;97924.78;;;6.13;100.00
49843;BME280;55559;48.898;9.184;2022-11-20T07:59:04;97930.66;;;6.17;100.00
49843;BME280;55559;48.898;9.184;2022-11-20T08:01:31;97922.84;;;6.15;100.00
49843;BME280;55559;48.898;9.184;2022-11-20T08:03:59;97930.66;;;6.28;100.00
49843;BME280;55559;48.898;9.184;2022-11-20T08:06:30;97925.72;;;6.35;100.00
49843;BME280;55559;48.898;9.184;2022-11-20T08:08:58;97921.97;;;6.37;100.00
49843;BME280;55559;48.898;9.184;2022-11-20T08:11:25;97927.59;;;6.44;100.00
49843;BME280;55559;48.898;9.184;2022-11-20T08:14:10;97921.47;;;6.55;100.00
49843;BME280;55559;48.898;9.184;2022-11-20T08:16:42;97917.22;;;6.63;100.00
49843;BME280;55559;48.898;9.184;2022-11-20T08:19:10;97920.88;;;6.83;100.00
49843;BME280;55559;48.898;9.184;2022-11-20T08:21:39;97925.53;;;6.91;100.00
49843;BME280;55559;48.898;9.184;2022-11-20T08:24:07;97921.94;;;6.92;100.00
49843;BME280;55559;48.898;9.184;2022-11-20T08:26:36;97921.81;;;6.94;100.00
49843;BME280;55559;48.898;9.184;2022-11-20T08:29:04;97931.78;;;6.90;100.00
49843;BME280;55559;48.898;9.184;2022-11-20T08:31:32;97929.03;;;7.13;100.00
49843;BME280;55559;48.898;9.184;2022-11-20T08:33:59;97933.88;;;7.07;100.00
49843;BME280;55559;48.898;9.184;2022-11-20T08:36:27;97932.34;;;7.05;100.00
49843;BME280;55559;48.898;9.184;2022-11-20T08:38:56;97929.81;;;7.03;100.00
49843;BME280;55559;48.898;9.184;2022-11-20T08:41:23;97927.28;;;7.02;100.00
49843;BME280;55559;48.898;9.184;2022-11-20T08:43:53;97934.13;;;7.04;100.00
49843;BME280;55559;48.898;9.184;2022-11-20T08:46:21;97939.66;;;7.01;100.00
49843;BME280;55559;48.898;9.184;2022-11-20T08:48:49;97937.75;;;7.03;100.00
49843;BME280;55559;48.898;9.184;2022-11-20T08:51:16;97931.03;;;6.99;100.00
49843;BME280;55559;48.898;9.184;2022-11-20T08:53:44;97941.84;;;6.96;100.00
49843;BME280;55559;48.898;9.184;2022-11-20T08:56:14;97944.56;;;7.06;100.00
49843;BME280;55559;48.898;9.184;2022-11-20T08:58:41;97941.78;;;7.07;100.00
49843;BME280;55559;48.898;9.184;2022-11-20T09:01:09;97947.34;;;7.04;100.00
49843;BME280;55559;48.898;9.184;2022-11-20T09:03:36;97955.56;;;7.22;100.00
49843;BME280;55559;48.898;9.184;2022-11-20T09:06:06;97953.03;;;7.21;100.00
49843;BME280;55559;48.898;9.184;2022-11-20T09:08:34;97948.00;;;7.18;100.00
49843;BME280;55559;48.898;9.184;2022-11-20T09:11:02;97951.88;;;7.14;100.00
49843;BME280;55559;48.898;9.184;2022-11-20T09:13:32;97949.16;;;7.04;100.00
49843;BME280;55559;48.898;9.184;2022-11-20T09:16:01;97958.44;;;6.98;100.00
49843;BME280;55559;48.898;9.184;2022-11-20T09:18:29;97963.19;;;7.04;100.00
49843;BME280;55559;48.898;9.184;2022-11-20T09:20:58;97956.91;;;7.17;100.00
49843;BME280;55559;48.898;9.184;2022-11-20T09:23:26;97959.69;;;7.15;100.00
49843;BME280;55559;48.898;9.184;2022-11-20T09:25:54;97958.81;;;7.15;100.00
49843;BME280;55559;48.898;9.184;2022-11-20T09:28:25;97967.41;;;7.07;100.00
49843;BME280;55559;48.898;9.184;2022-11-20T09:30:54;97966.06;;;7.13;100.00
49843;BME280;55559;48.898;9.184;2022-11-20T09:33:22;97971.91;;;7.16;100.00
49843;BME280;55559;48.898;9.184;2022-11-20T09:35:49;97965.97;;;7.03;100.00
49843;BME280;55559;48.898;9.184;2022-11-20T09:38:17;97966.53;;;7.06;100.00
49843;BME280;55559;48.898;9.184;2022-11-20T09:40:47;97978.56;;;7.11;100.00
49843;BME280;55559;48.898;9.184;2022-11-20T09:43:19;97974.19;;;7.21;100.00
49843;BME280;55559;48.898;9.184;2022-11-20T09:46:02;97973.81;;;7.25;100.00
49843;BME280;55559;48.898;9.184;2022-11-20T09:48:43;97973.56;;;7.29;100.00
49843;BME280;55559;48.898;9.184;2022-11-20T09:51:23;97974.41;;;7.29;100.00
49843;BME280;55559;48.898;9.184;2022-11-20T09:54:06;97979.44;;;7.32;100.00
49843;BME280;55559;48.898;9.184;2022-11-20T09:56:40;97979.22;;;7.24;100.00
49843;BME280;55559;48.898;9.184;2022-11-20T09:59:18;97972.81;;;7.26;100.00
49843;BME280;55559;48.898;9.184;2022-11-20T10:01:53;97982.44;;;7.28;100.00
49843;BME280;55559;48.898;9.184;2022-11-20T10:04:22;97983.34;;;7.38;100.00
49843;BME280;55559;48.898;9.184;2022-11-20T10:06:54;97977.38;;;7.36;100.00
49843;BME280;55559;48.898;9.184;2022-11-20T10:09:27;97979.19;;;7.35;100.00
49843;BME280;55559;48.898;9.184;2022-11-20T10:12:06;97972.06;;;7.36;100.00
49843;BME280;55559;48.898;9.184;2022-11-20T10:14:45;97978.97;;;7.27;100.00
49843;BME280;55559;48.898;9.184;2022-11-20T10:17:27;97988.00;;;7.24;100.00
49843;BME280;55559;48.898;9.184;2022-11-20T10:20:14;97992.88;;;7.08;100.00
49843;BME280;55559;48.898;9.184;2022-11-20T10:22:56;97991.53;;;7.14;100.00
49843;BME280;55559;48.898;9.184;2022-11-20T10:25:36;97987.53;;;7.19;100.00
49843;BME280;55559;48.898;9.184;2022-11-20T10:28:16;97995.09;;;7.24;100.00
49843;BME280;55559;48.898;9.184;2022-11-20T10:30:53;97993.38;;;7.34;100.00
49843;BME280;55559;48.898;9.184;2022-11-20T10:33:25;97992.44;;;7.24;100.00
49843;BME280;55559;48.898;9.184;2022-11-20T10:35:59;97978.69;;;7.30;100.00
49843;BME280;55559;48.898;9.184;2022-11-20T10:38:33;97991.75;;;7.22;100.00
49843;BME280;55559;48.898;9.184;2022-11-20T10:41:04;97989.59;;;7.37;100.00
49843;BME280;55559;48.898;9.184;2022-11-20T10:43:53;97987.75;;;7.28;100.00
49843;BME280;55559;48.898;9.184;2022-11-20T10:46:25;97984.72;;;7.32;100.00
49843;BME280;55559;48.898;9.184;2022-11-20T10:48:54;97978.53;;;7.22;100.00
49843;BME280;55559;48.898;9.184;2022-11-20T10:51:31;97974.44;;;7.18;100.00
49843;BME280;55559;48.898;9.184;2022-11-20T10:54:10;97966.97;;;7.23;100.00
49843;BME280;55559;48.898;9.184;2022-11-20T10:56:42;97978.94;;;7.06;100.00
49843;BME280;55559;48.898;9.184;2022-11-20T10:59:41;97977.53;;;7.02;100.00
49843;BME280;55559;48.898;9.184;2022-11-20T11:02:18;97982.34;;;6.97;100.00
49843;BME280;55559;48.898;9.184;2022-11-20T11:04:50;97984.34;;;7.04;100.00
49843;BME280;55559;48.898;9.184;2022-11-20T11:07:21;97983.41;;;7.05;100.00
49843;BME280;55559;48.898;9.184;2022-11-20T11:09:52;97981.41;;;7.19;100.00
49843;BME280;55559;48.898;9.184;2022-11-20T11:12:21;97981.25;;;6.99;100.00
49843;BME280;55559;48.898;9.184;2022-11-20T11:14:51;97970.25;;;7.15;100.00
49843;BME280;55559;48.898;9.184;2022-11-20T11:17:27;97965.31;;;7.22;100.00
49843;BME280;55559;48.898;9.184;2022-11-20T11:20:05;97969.44;;;7.36;100.00
49843;BME280;55559;48.898;9.184;2022-11-20T11:22:42;97942.31;;;7.43;100.00
49843;BME280;55559;48.898;9.184;2022-11-20T11:25:20;97948.69;;;7.62;100.00
49843;BME280;55559;48.898;9.184;2022-11-20T11:27:49;97936.47;;;7.92;100.00
49843;BME280;55559;48.898;9.184;2022-11-20T11:30:18;97934.69;;;8.02;100.00
49843;BME280;55559;48.898;9.184;2022-11-20T11:32:46;97936.72;;;8.29;100.00
49843;BME280;55559;48.898;9.184;2022-11-20T11:35:24;97917.28;;;8.60;100.00
49843;BME280;55559;48.898;9.184;2022-11-20T11:37:55;97920.13;;;8.78;100.00
49843;BME280;55559;48.898;9.184;2022-11-20T11:40:31;97922.78;;;8.87;100.00
49843;BME280;55559;48.898;9.184;2022-11-20T11:43:02;97915.66;;;8.98;100.00
49843;BME280;55559;48.898;9.184;2022-11-20T11:45:53;97922.19;;;9.13;100.00
49843;BME280;55559;48.898;9.184;2022-11-20T11:48:19;97918.47;;;8.36;100.00
49843;BME280;55559;48.898;9.184;2022-11-20T11:50:50;97914.41;;;8.22;100.00
49843;BME280;55559;48.898;9.184;2022-11-20T11:53:19;97899.91;;;8.16;100.00
49843;BME280;55559;48.898;9.184;2022-11-20T11:55:56;97907.25;;;8.03;100.00
49843;BME280;55559;48.898;9.184;2022-11-20T11:58:38;97900.03;;;8.15;100.00
49843;BME280;55559;48.898;9.184;2022-11-20T12:01:24;97900.06;;;8.25;100.00
49843;BME280;55559;48.898;9.184;2022-11-20T12:04:02;97897.56;;;8.23;100.00
49843;BME280;55559;48.898;9.184;2022-11-20T12:06:35;97899.78;;;8.28;100.00
49843;BME280;55559;48.898;9.184;2022-11-20T12:09:05;97897.47;;;8.44;100.00
49843;BME280;55559;48.898;9.184;2022-11-20T12:11:38;97889.72;;;8.72;100.00
49843;BME280;55559;48.898;9.184;2022-11-20T12:14:14;97897.91;;;8.98;100.00
49843;BME280;55559;48.898;9.184;2022-11-20T12:16:45;97902.13;;;8.91;100.00
49843;BME280;55559;48.898;9.184;2022-11-20T12:19:14;97887.19;;;8.70;100.00
49843;BME280;55559;48.898;9.184;2022-11-20T12:21:52;97882.31;;;8.66;100.00
49843;BME280;55559;48.898;9.184;2022-11-20T12:24:42;97888.84;;;8.52;100.00
49843;BME280;55559;48.898;9.184;2022-11-20T12:27:43;97878.09;;;8.73;100.00
49843;BME280;55559;48.898;9.184;2022-11-20T12:30:16;97879.63;;;8.95;100.00
49843;BME280;55559;48.898;9.184;2022-11-20T12:33:18;97865.81;;;8.82;100.00
49843;BME280;55559;48.898;9.184;2022-11-20T12:36:04;97874.31;;;9.15;100.00
49843;BME280;55559;48.898;9.184;2022-11-20T12:39:00;97866.47;;;9.33;100.00
49843;BME280;55559;48.898;9.184;2022-11-20T12:41:45;97865.25;;;9.07;100.00
49843;BME280;55559;48.898;9.184;2022-11-20T12:44:47;97862.97;;;9.22;100.00
49843;BME280;55559;48.898;9.184;2022-11-20T12:47:51;97872.34;;;9.26;100.00
49843;BME280;55559;48.898;9.184;2022-11-20T12:50:30;97870.41;;;9.09;100.00
49843;BME280;55559;48.898;9.184;2022-11-20T12:53:04;97872.22;;;9.18;100.00
49843;BME280;55559;48.898;9.184;2022-11-20T12:55:41;97869.72;;;8.97;100.00
49843;BME280;55559;48.898;9.184;2022-11-20T12:58:15;97866.81;;;8.90;100.00
49843;BME280;55559;48.898;9.184;2022-11-20T13:00:54;97869.72;;;8.97;100.00
49843;BME280;55559;48.898;9.184;2022-11-20T13:03:37;97861.19;;;9.23;100.00
49843;BME280;55559;48.898;9.184;2022-11-20T13:06:12;97866.03;;;9.27;100.00
49843;BME280;55559;48.898;9.184;2022-11-20T13:08:42;97874.59;;;9.02;100.00
49843;BME280;55559;48.898;9.184;2022-11-20T13:11:16;97881.44;;;9.14;100.00
49843;BME280;55559;48.898;9.184;2022-11-20T13:16:51;97874.09;;;8.79;100.00
49843;BME280;55559;48.898;9.184;2022-11-20T13:19:19;97882.88;;;8.89;100.00
49843;BME280;55559;48.898;9.184;2022-11-20T13:21:49;97872.50;;;9.15;100.00